Time;durP1;ratioP1;P1;durP2;ratioP2;P2;SDS_P1;SDS_P2;PMS_P1;PMS_P2;Temp;Humidity;BMP_temperature;BMP_pressure;BME280_temperature;BME280_humidity;BME280_pressure;Samples;Min_cycle;Max_cycle;Signal;HPM_P1;HPM_P2
2022/11/18 00:00:01;;;;;;;1.67;1.23;;;21.50;92.00;;;;;;4989870;28;20201;-71
2022/11/18 00:02:28;;;;;;;2.20;1.77;;;21.60;91.90;;;;;;4990780;28;20708;-71
2022/11/18 00:04:55;;;;;;;2.30;1.40;;;21.60;91.90;;;;;;5000359;28;20571;-71
2022/11/18 00:07:23;;;;;;;2.67;1.25;;;21.50;91.70;;;;;;4989642;28;20542;-70
2022/11/18 00:09:49;;;;;;;4.50;1.58;;;21.50;91.70;;;;;;4988390;28;20201;-70
2022/11/18 00:15:00;;;;;;;2.10;1.20;;;21.50;91.70;;;;;;4986571;28;20215;-71
2022/11/18 00:17:27;;;;;;;2.30;1.73;;;21.50;91.70;;;;;;5000734;28;20576;-71
2022/11/18 00:19:54;;;;;;;3.45;1.80;;;21.40;91.60;;;;;;4989136;28;20204;-71
2022/11/18 00:22:20;;;;;;;1.90;1.38;;;21.40;91.60;;;;;;4999125;28;20219;-71
2022/11/18 00:24:48;;;;;;;2.70;1.42;;;21.40;91.60;;;;;;4992754;28;20209;-71
2022/11/18 00:27:15;;;;;;;2.75;1.92;;;21.40;91.70;;;;;;4989669;28;20562;-72
2022/11/18 00:29:42;;;;;;;1.33;1.23;;;21.40;91.70;;;;;;4985611;28;20677;-71
2022/11/18 00:32:08;;;;;;;1.50;1.38;;;21.30;91.60;;;;;;4982824;28;20218;-71
2022/11/18 00:34:35;;;;;;;1.35;1.20;;;21.30;91.70;;;;;;4990602;28;22052;-72
2022/11/18 00:37:03;;;;;;;3.05;1.38;;;21.30;92.00;;;;;;4992688;28;20645;-71
2022/11/18 00:39:29;;;;;;;2.53;1.33;;;21.10;92.40;;;;;;4994785;28;20197;-71
2022/11/18 00:44:41;;;;;;;2.33;1.55;;;21.00;92.60;;;;;;4990193;28;20216;-72
2022/11/18 00:47:08;;;;;;;1.40;1.30;;;21.00;92.80;;;;;;4988694;28;20228;-71
2022/11/18 00:49:35;;;;;;;2.45;1.50;;;21.00;92.90;;;;;;4982309;28;20668;-71
2022/11/18 00:52:01;;;;;;;1.88;1.38;;;20.90;92.90;;;;;;4989679;28;20213;-73
2022/11/18 00:54:28;;;;;;;1.52;1.20;;;20.90;93.00;;;;;;4986213;28;20197;-71
2022/11/18 00:56:56;;;;;;;2.20;1.55;;;20.90;92.90;;;;;;4987953;28;20205;-71
2022/11/18 00:59:23;;;;;;;1.48;1.33;;;20.90;93.00;;;;;;4990638;28;20580;-71
2022/11/18 01:01:50;;;;;;;2.22;1.55;;;20.90;93.00;;;;;;4993990;28;20212;-73
2022/11/18 01:04:17;;;;;;;2.65;1.38;;;20.90;92.90;;;;;;4987669;28;20201;-71
2022/11/18 01:06:43;;;;;;;1.40;1.20;;;20.90;92.80;;;;;;4980758;28;20208;-71
2022/11/18 01:09:10;;;;;;;4.03;1.50;;;20.90;92.80;;;;;;5005288;28;20193;-72
2022/11/18 01:14:28;;;;;;;1.95;1.48;;;20.90;92.80;;;;;;4952873;28;20201;-71
2022/11/18 01:16:55;;;;;;;1.90;1.40;;;20.90;92.90;;;;;;4993438;28;20228;-70
2022/11/18 01:19:22;;;;;;;1.48;1.33;;;20.80;92.90;;;;;;4992001;28;20200;-71
2022/11/18 01:21:49;;;;;;;1.55;1.45;;;20.80;92.90;;;;;;4994934;28;20202;-71
2022/11/18 01:24:16;;;;;;;2.00;1.60;;;20.80;92.90;;;;;;4979872;28;20205;-72
2022/11/18 01:26:43;;;;;;;1.80;1.52;;;20.80;92.90;;;;;;4986892;28;20204;-71
2022/11/18 01:29:10;;;;;;;1.60;1.50;;;20.80;93.00;;;;;;4984071;28;20205;-70
2022/11/18 01:31:41;;;;;;;1.40;1.30;;;20.80;93.00;;;;;;4993495;28;20224;-71
2022/11/18 01:34:08;;;;;;;2.15;1.30;;;20.70;93.00;;;;;;4994806;28;20208;-71
2022/11/18 01:36:34;;;;;;;2.45;1.48;;;20.70;93.10;;;;;;4989570;28;20198;-71
2022/11/18 01:39:01;;;;;;;2.05;1.40;;;20.70;93.10;;;;;;4991484;28;20561;-71
2022/11/18 01:41:28;;;;;;;1.30;1.20;;;20.70;93.20;;;;;;4987124;28;20197;-72
2022/11/18 01:43:57;;;;;;;1.50;1.40;;;20.70;93.20;;;;;;4988842;28;20219;-71
2022/11/18 01:46:26;;;;;;;1.40;1.30;;;20.60;93.20;;;;;;4986145;28;20201;-71
2022/11/18 01:48:59;;;;;;;1.42;1.25;;;20.60;93.30;;;;;;4987574;28;20645;-71
2022/11/18 01:51:32;;;;;;;1.42;1.33;;;20.60;93.40;;;;;;4992797;28;20675;-72
2022/11/18 01:54:02;;;;;;;1.58;1.48;;;20.50;93.70;;;;;;4990687;28;20200;-73
2022/11/18 01:56:39;;;;;;;1.67;1.50;;;20.40;94.00;;;;;;4993043;28;20648;-72
2022/11/18 01:59:11;;;;;;;1.75;1.40;;;20.40;94.20;;;;;;4985455;28;20196;-70
2022/11/18 02:01:37;;;;;;;2.65;1.40;;;20.30;94.40;;;;;;5000694;28;20204;-71
2022/11/18 02:04:07;;;;;;;1.45;1.20;;;20.30;94.40;;;;;;5000799;28;20754;-71
2022/11/18 02:06:34;;;;;;;1.45;1.20;;;20.30;94.40;;;;;;4996112;28;20209;-71
2022/11/18 02:09:01;;;;;;;2.13;1.55;;;20.30;94.40;;;;;;4988860;28;20217;-71
2022/11/18 02:14:19;;;;;;;1.42;1.25;;;20.30;94.30;;;;;;4988868;28;20216;-71
2022/11/18 02:17:00;;;;;;;1.33;1.20;;;20.40;94.30;;;;;;4993387;28;20279;-72
2022/11/18 02:20:08;;;;;;;1.45;1.33;;;20.40;94.30;;;;;;4990059;28;20199;-73
2022/11/18 02:23:05;;;;;;;1.98;1.27;;;20.30;94.30;;;;;;4987650;28;20199;-70
2022/11/18 02:25:38;;;;;;;1.65;1.40;;;20.40;94.70;;;;;;4988792;28;20336;-72
2022/11/18 02:28:35;;;;;;;1.80;1.50;;;20.30;94.30;;;;;;4989541;28;20204;-72
2022/11/18 02:31:10;;;;;;;2.13;1.30;;;20.30;94.30;;;;;;4989886;28;20226;-72
2022/11/18 02:33:44;;;;;;;1.92;1.50;;;20.30;94.40;;;;;;5000668;28;20695;-72
2022/11/18 02:36:19;;;;;;;1.65;1.55;;;20.30;94.40;;;;;;4985661;28;20689;-71
2022/11/18 02:38:50;;;;;;;3.05;1.20;;;20.20;94.40;;;;;;4994148;28;20686;-71
2022/11/18 02:41:23;;;;;;;1.90;1.60;;;20.20;94.50;;;;;;4999030;28;20412;-71
2022/11/18 02:43:53;;;;;;;1.60;1.20;;;20.20;94.50;;;;;;4986628;28;20208;-72
2022/11/18 02:46:26;;;;;;;1.45;1.30;;;20.20;94.50;;;;;;4988497;28;20208;-71
2022/11/18 02:48:54;;;;;;;1.52;1.40;;;20.20;94.60;;;;;;4979402;28;20209;-71
2022/11/18 02:51:24;;;;;;;1.60;1.30;;;20.20;94.70;;;;;;4991993;28;20666;-71
2022/11/18 02:53:55;;;;;;;1.92;1.70;;;20.20;94.70;;;;;;4994942;28;20347;-72
2022/11/18 02:56:22;;;;;;;1.58;1.33;;;20.10;94.70;;;;;;4994377;28;20241;-71
2022/11/18 02:58:49;;;;;;;1.70;1.60;;;20.10;94.70;;;;;;4985380;28;20193;-72
2022/11/18 03:01:19;;;;;;;2.00;1.73;;;20.10;94.80;;;;;;4995806;28;20200;-72
2022/11/18 03:03:47;;;;;;;1.10;1.00;;;20.10;94.90;;;;;;4986151;28;20617;-72
2022/11/18 03:06:27;;;;;;;1.65;1.55;;;20.10;94.90;;;;;;4984821;28;20205;-71
2022/11/18 03:09:08;;;;;;;1.52;1.30;;;20.10;95.00;;;;;;4983590;28;20197;-71
2022/11/18 03:11:42;;;;;;;1.67;1.58;;;20.00;95.20;;;;;;4979115;28;20206;-71
2022/11/18 03:14:19;;;;;;;2.25;1.10;;;19.90;95.50;;;;;;4992575;28;20196;-70
2022/11/18 03:16:56;;;;;;;1.75;1.45;;;19.90;95.70;;;;;;4994306;28;20236;-71
2022/11/18 03:19:34;;;;;;;2.17;1.40;;;19.90;95.80;;;;;;4981551;28;20200;-72
2022/11/18 03:22:09;;;;;;;1.60;1.50;;;19.90;95.80;;;;;;4995768;28;20197;-71
2022/11/18 03:24:41;;;;;;;1.60;1.50;;;19.90;95.70;;;;;;4994937;28;20200;-72
2022/11/18 03:27:16;;;;;;;1.63;1.33;;;19.90;95.60;;;;;;4988503;28;20200;-75
2022/11/18 03:29:47;;;;;;;1.38;1.27;;;20.00;95.60;;;;;;4994617;28;20204;-71
2022/11/18 03:32:17;;;;;;;1.77;1.52;;;20.00;95.60;;;;;;4988089;28;20422;-71
2022/11/18 03:34:48;;;;;;;1.52;1.42;;;20.00;95.60;;;;;;4993252;28;20212;-71
2022/11/18 03:37:16;;;;;;;1.70;1.40;;;19.90;95.60;;;;;;4995445;28;20201;-71
2022/11/18 03:39:48;;;;;;;1.38;1.20;;;19.90;95.60;;;;;;4995211;28;20676;-71
2022/11/18 03:42:21;;;;;;;1.40;1.30;;;19.90;95.60;;;;;;4993518;28;20197;-71
2022/11/18 03:44:51;;;;;;;1.55;1.45;;;19.90;95.60;;;;;;4987370;28;20581;-72
2022/11/18 03:47:22;;;;;;;1.40;1.27;;;19.90;95.70;;;;;;4999966;28;20223;-72
2022/11/18 03:49:53;;;;;;;1.23;1.00;;;19.90;95.70;;;;;;4990135;28;20198;-74
2022/11/18 03:52:24;;;;;;;1.60;1.38;;;19.90;95.70;;;;;;5006797;28;20224;-75
2022/11/18 03:54:54;;;;;;;1.30;1.20;;;19.90;95.80;;;;;;4998476;28;20200;-74
2022/11/18 03:57:25;;;;;;;1.80;1.38;;;19.80;95.70;;;;;;4984804;28;20202;-74
2022/11/18 03:59:56;;;;;;;1.33;1.13;;;19.80;95.80;;;;;;4994115;28;20189;-74
2022/11/18 04:02:26;;;;;;;1.90;1.38;;;19.80;95.80;;;;;;4996082;28;20213;-75
2022/11/18 04:04:57;;;;;;;1.50;1.30;;;19.80;95.80;;;;;;4984575;28;20547;-75
2022/11/18 04:07:27;;;;;;;1.50;1.33;;;19.80;95.90;;;;;;4990382;28;20197;-74
2022/11/18 04:09:57;;;;;;;1.30;1.05;;;19.80;95.90;;;;;;5003982;28;20200;-75
2022/11/18 04:12:27;;;;;;;1.30;1.20;;;19.80;95.90;;;;;;5010365;28;20223;-75
2022/11/18 04:14:54;;;;;;;1.38;1.20;;;19.80;96.00;;;;;;4985715;28;20220;-75
2022/11/18 04:17:23;;;;;;;1.55;1.45;;;19.70;95.90;;;;;;4992323;28;20505;-75
2022/11/18 04:19:50;;;;;;;1.50;1.40;;;19.80;96.00;;;;;;4987825;28;20602;-75
2022/11/18 04:22:18;;;;;;;2.03;1.63;;;19.70;96.00;;;;;;5000699;28;20193;-74
2022/11/18 04:24:45;;;;;;;1.20;1.10;;;19.70;96.00;;;;;;4994060;28;20205;-74
2022/11/18 04:27:13;;;;;;;1.50;1.40;;;19.70;96.10;;;;;;4997529;28;20212;-74
2022/11/18 04:29:39;;;;;;;1.60;1.50;;;19.70;96.10;;;;;;4994345;28;20212;-75
2022/11/18 04:32:06;;;;;;;1.50;1.40;;;19.70;96.10;;;;;;4994735;28;20200;-74
2022/11/18 04:34:33;;;;;;;1.30;1.10;;;19.70;96.20;;;;;;4989528;28;20656;-74
2022/11/18 04:37:00;;;;;;;1.50;1.30;;;19.60;96.20;;;;;;4992770;28;20203;-74
2022/11/18 04:39:28;;;;;;;1.60;1.48;;;19.60;96.20;;;;;;5000789;28;20208;-74
2022/11/18 04:41:57;;;;;;;1.75;1.33;;;19.60;96.30;;;;;;4985218;28;20546;-74
2022/11/18 04:44:26;;;;;;;1.98;1.60;;;19.70;96.80;;;;;;4984871;28;20276;-74
2022/11/18 04:46:54;;;;;;;1.40;1.30;;;19.80;96.50;;;;;;4988405;28;20206;-74
2022/11/18 04:49:20;;;;;;;1.40;1.30;;;19.90;96.40;;;;;;4988676;28;20208;-74
2022/11/18 04:51:47;;;;;;;1.40;1.27;;;20.00;96.10;;;;;;4987426;28;20573;-75
2022/11/18 04:54:15;;;;;;;1.40;1.15;;;20.10;96.10;;;;;;4995154;28;20224;-74
2022/11/18 04:56:44;;;;;;;1.20;1.10;;;20.10;96.00;;;;;;4986224;28;20201;-74
2022/11/18 04:59:12;;;;;;;1.83;1.63;;;20.20;95.70;;;;;;4991700;28;20967;-74
2022/11/18 05:01:39;;;;;;;1.52;1.20;;;20.30;95.60;;;;;;4989946;28;20204;-74
2022/11/18 05:04:07;;;;;;;1.40;1.23;;;20.30;95.50;;;;;;4991225;28;20204;-74
2022/11/18 05:06:34;;;;;;;1.42;1.33;;;20.40;95.30;;;;;;4990969;28;20197;-74
2022/11/18 05:09:02;;;;;;;1.30;1.00;;;20.40;95.20;;;;;;4991961;28;20212;-74
2022/11/18 05:14:14;;;;;;;1.58;1.20;;;20.50;95.20;;;;;;4994126;28;20227;-74
2022/11/18 05:16:41;;;;;;;1.60;1.25;;;20.60;95.00;;;;;;4995744;28;20239;-75
2022/11/18 05:19:08;;;;;;;1.48;1.20;;;20.60;94.90;;;;;;4987509;28;20205;-74
2022/11/18 05:21:35;;;;;;;1.20;1.10;;;20.60;94.80;;;;;;4996903;28;20207;-74
2022/11/18 05:24:03;;;;;;;1.25;1.15;;;20.60;94.70;;;;;;4985834;28;20189;-74
2022/11/18 05:26:30;;;;;;;1.42;1.33;;;20.50;94.70;;;;;;4989250;28;20731;-74
2022/11/18 05:28:56;;;;;;;1.35;1.00;;;20.50;94.70;;;;;;4983987;28;20200;-74
2022/11/18 05:31:25;;;;;;;2.20;1.50;;;20.60;94.70;;;;;;4988830;28;20201;-74
2022/11/18 05:33:51;;;;;;;1.30;1.17;;;20.60;94.60;;;;;;4988715;28;20687;-74
2022/11/18 05:36:20;;;;;;;1.35;1.10;;;20.60;94.60;;;;;;4989218;28;20469;-74
2022/11/18 05:38:47;;;;;;;1.30;1.15;;;20.60;94.60;;;;;;4988835;28;20197;-74
2022/11/18 05:43:09;;;;;;;1.50;1.40;;;20.70;94.60;;;;;;4993878;28;20201;-74
2022/11/18 05:44:00;;;;;;;1.58;1.40;;;20.70;94.40;;;;;;4990331;28;20228;-73
2022/11/18 05:46:29;;;;;;;1.13;1.02;;;20.80;94.10;;;;;;4987463;28;20656;-74
2022/11/18 05:48:55;;;;;;;1.65;1.40;;;20.90;94.00;;;;;;4987085;28;20201;-74
2022/11/18 05:51:22;;;;;;;1.40;1.15;;;20.90;93.90;;;;;;4995434;28;20203;-73
2022/11/18 05:53:51;;;;;;;1.40;1.30;;;20.90;93.80;;;;;;4989933;28;20724;-73
2022/11/18 05:56:22;;;;;;;1.50;1.25;;;20.90;93.70;;;;;;4989586;28;20943;-75
2022/11/18 05:58:49;;;;;;;1.80;1.30;;;20.90;93.70;;;;;;4989714;28;20785;-75
2022/11/18 06:01:21;;;;;;;1.20;1.00;;;20.90;93.70;;;;;;4986634;28;20478;-74
2022/11/18 06:03:49;;;;;;;1.40;1.25;;;20.90;93.60;;;;;;4990667;28;20818;-74
2022/11/18 06:06:19;;;;;;;1.20;1.00;;;20.90;93.50;;;;;;4988348;28;20659;-74
2022/11/18 06:08:49;;;;;;;1.38;1.10;;;21.00;93.50;;;;;;4987148;28;20212;-74
2022/11/18 06:11:19;;;;;;;1.40;1.30;;;21.00;93.40;;;;;;5003654;28;20201;-74
2022/11/18 06:13:51;;;;;;;1.30;1.10;;;21.00;93.30;;;;;;4986157;28;20483;-74
2022/11/18 06:16:22;;;;;;;1.33;1.23;;;21.10;93.30;;;;;;4990108;28;21006;-75
2022/11/18 06:18:50;;;;;;;1.13;1.03;;;21.10;93.20;;;;;;4997595;28;20199;-75
2022/11/18 06:21:16;;;;;;;1.20;1.10;;;21.20;93.10;;;;;;4994609;28;20462;-74
2022/11/18 06:23:43;;;;;;;1.37;1.27;;;21.20;93.00;;;;;;4983964;28;20472;-74
2022/11/18 06:26:11;;;;;;;1.20;1.10;;;21.20;92.80;;;;;;4995671;28;20462;-74
2022/11/18 06:28:39;;;;;;;1.60;1.00;;;21.30;92.70;;;;;;5006000;28;20489;-74
2022/11/18 06:31:06;;;;;;;1.20;1.10;;;21.30;92.60;;;;;;4997182;28;20826;-74
2022/11/18 06:33:32;;;;;;;2.03;1.10;;;21.30;92.50;;;;;;4985830;28;20495;-74
2022/11/18 06:36:00;;;;;;;1.17;1.07;;;21.30;92.40;;;;;;4983931;28;20463;-75
2022/11/18 06:38:27;;;;;;;1.10;0.90;;;21.30;92.40;;;;;;4981039;28;20460;-73
2022/11/18 06:40:58;;;;;;;1.23;1.10;;;21.30;92.30;;;;;;4994726;28;20466;-76
2022/11/18 06:43:40;;;;;;;1.87;1.40;;;21.30;92.30;;;;;;4987232;28;20452;-74
2022/11/18 06:48:53;;;;;;;1.20;1.10;;;21.40;92.30;;;;;;4988743;28;20439;-75
2022/11/18 06:51:21;;;;;;;1.40;1.30;;;21.40;92.20;;;;;;4993907;28;20436;-75
2022/11/18 06:53:48;;;;;;;1.17;1.03;;;21.40;92.10;;;;;;4990970;28;21163;-74
2022/11/18 06:56:17;;;;;;;1.10;0.90;;;21.40;92.00;;;;;;4991832;28;20467;-75
2022/11/18 06:58:44;;;;;;;1.93;1.10;;;21.40;92.00;;;;;;5001933;28;20575;-74
2022/11/18 07:01:12;;;;;;;1.47;1.20;;;21.50;91.90;;;;;;4994976;28;20470;-74
2022/11/18 07:03:40;;;;;;;1.23;1.03;;;21.50;91.90;;;;;;4990816;28;20991;-75
2022/11/18 07:06:07;;;;;;;1.00;0.80;;;21.50;91.80;;;;;;4992645;28;20451;-74
2022/11/18 07:08:36;;;;;;;1.10;1.00;;;21.60;91.70;;;;;;4993757;28;20482;-74
2022/11/18 07:11:05;;;;;;;1.70;1.60;;;21.60;91.60;;;;;;5000326;28;20455;-74
2022/11/18 07:13:32;;;;;;;1.40;1.30;;;21.60;91.50;;;;;;4985560;28;20905;-74
2022/11/18 07:16:03;;;;;;;1.13;1.00;;;21.60;91.50;;;;;;4989431;28;20520;-74
2022/11/18 07:18:30;;;;;;;1.20;1.10;;;21.60;91.40;;;;;;4989398;28;20465;-74
2022/11/18 07:20:57;;;;;;;1.10;1.00;;;21.70;91.40;;;;;;4991027;28;20482;-74
2022/11/18 07:23:23;;;;;;;1.10;0.90;;;21.70;91.30;;;;;;4999075;28;20459;-74
2022/11/18 07:25:54;;;;;;;1.23;1.03;;;21.70;91.20;;;;;;4986416;28;21175;-74
2022/11/18 07:28:21;;;;;;;1.30;1.13;;;21.70;91.10;;;;;;4999356;28;20830;-74
2022/11/18 07:30:47;;;;;;;1.00;0.90;;;21.70;91.10;;;;;;5000184;28;20839;-76
2022/11/18 07:33:14;;;;;;;1.20;1.10;;;21.80;91.10;;;;;;4987827;28;20490;-76
2022/11/18 07:35:41;;;;;;;1.23;1.10;;;21.80;91.00;;;;;;4991513;28;20460;-74
2022/11/18 07:38:08;;;;;;;1.20;0.93;;;21.80;91.00;;;;;;4996082;28;20451;-74
2022/11/18 07:40:35;;;;;;;1.10;0.93;;;21.80;90.90;;;;;;4991651;28;20464;-74
2022/11/18 07:43:03;;;;;;;1.20;1.10;;;21.80;90.90;;;;;;4989065;28;20459;-74
2022/11/18 07:45:29;;;;;;;1.60;1.23;;;21.80;90.80;;;;;;4989564;28;20467;-73
2022/11/18 07:47:56;;;;;;;1.20;1.10;;;21.80;90.80;;;;;;4996541;28;20467;-74
2022/11/18 07:50:23;;;;;;;1.07;0.97;;;21.80;90.70;;;;;;4989207;28;20471;-74
2022/11/18 07:52:49;;;;;;;1.60;1.47;;;21.80;90.70;;;;;;4997162;28;20450;-74
2022/11/18 07:55:16;;;;;;;1.10;0.90;;;21.90;90.70;;;;;;4988744;28;20468;-74
2022/11/18 07:57:43;;;;;;;1.00;0.90;;;21.90;90.70;;;;;;4992096;28;20468;-75
2022/11/18 08:00:14;;;;;;;1.07;0.80;;;21.90;90.70;;;;;;4982909;28;20958;-73
2022/11/18 08:02:42;;;;;;;1.50;1.33;;;21.90;90.60;;;;;;4987225;28;20471;-71
2022/11/18 08:05:09;;;;;;;1.20;0.93;;;21.90;90.60;;;;;;4991856;28;20456;-70
2022/11/18 08:07:36;;;;;;;1.20;1.00;;;21.90;90.50;;;;;;5009183;28;20950;-72
2022/11/18 08:10:02;;;;;;;1.20;0.90;;;21.90;90.50;;;;;;5001290;28;20463;-70
2022/11/18 08:12:30;;;;;;;1.17;0.90;;;21.90;90.50;;;;;;4990819;28;20796;-72
2022/11/18 08:14:56;;;;;;;0.90;0.80;;;21.90;90.40;;;;;;4952730;28;1092445;-71
2022/11/18 08:17:24;;;;;;;1.10;1.00;;;21.90;90.40;;;;;;4984856;28;20209;-71
2022/11/18 08:19:51;;;;;;;1.10;0.90;;;21.90;90.30;;;;;;4980324;28;20460;-72
2022/11/18 08:22:19;;;;;;;1.20;0.97;;;21.90;90.30;;;;;;4987624;28;20460;-71
2022/11/18 08:24:46;;;;;;;1.10;0.90;;;21.90;90.20;;;;;;4990150;28;20851;-73
2022/11/18 08:27:13;;;;;;;1.20;0.97;;;21.90;90.20;;;;;;4988704;28;20465;-71
2022/11/18 08:29:40;;;;;;;1.10;1.00;;;21.90;90.10;;;;;;4988659;28;20460;-71
2022/11/18 08:32:06;;;;;;;1.00;0.90;;;21.90;90.10;;;;;;4990775;28;20974;-73
2022/11/18 08:34:35;;;;;;;1.20;1.10;;;21.90;90.20;;;;;;4995443;28;20487;-71
2022/11/18 08:37:01;;;;;;;1.33;1.00;;;21.80;90.20;;;;;;4990896;28;20943;-71
2022/11/18 08:39:28;;;;;;;1.60;1.50;;;21.80;90.30;;;;;;4994204;28;20475;-73
2022/11/18 08:41:57;;;;;;;1.10;1.00;;;21.80;90.40;;;;;;4993561;28;20472;-72
2022/11/18 08:44:24;;;;;;;1.57;1.10;;;21.80;90.50;;;;;;4989629;28;20649;-71
2022/11/18 08:46:51;;;;;;;1.00;0.90;;;21.80;90.40;;;;;;4991883;28;20460;-72
2022/11/18 08:49:18;;;;;;;1.20;1.00;;;21.80;90.40;;;;;;4989821;28;20466;-73
2022/11/18 08:51:46;;;;;;;1.40;1.10;;;21.90;90.30;;;;;;4991628;28;20460;-72
2022/11/18 08:54:13;;;;;;;1.10;1.00;;;21.90;90.30;;;;;;4988660;28;20502;-73
2022/11/18 08:56:39;;;;;;;1.10;1.00;;;22.00;90.30;;;;;;4988947;28;20460;-71
2022/11/18 08:59:07;;;;;;;4.33;1.20;;;22.00;90.10;;;;;;4980284;28;20464;-72
2022/11/18 09:01:35;;;;;;;1.17;1.00;;;22.10;90.00;;;;;;4979059;28;20457;-72
2022/11/18 09:04:02;;;;;;;1.10;1.00;;;22.10;89.90;;;;;;4978509;28;20448;-72
2022/11/18 09:06:28;;;;;;;1.17;0.97;;;22.20;89.70;;;;;;4979031;28;20492;-71
2022/11/18 09:08:57;;;;;;;1.70;1.10;;;22.20;89.60;;;;;;4979153;28;20459;-71
2022/11/18 09:11:25;;;;;;;1.47;1.00;;;22.20;89.50;;;;;;4981937;28;20456;-72
2022/11/18 09:13:53;;;;;;;1.33;1.00;;;22.20;89.30;;;;;;4979796;28;20482;-73
2022/11/18 09:16:22;;;;;;;1.03;0.80;;;22.30;89.20;;;;;;4979408;28;20491;-74
2022/11/18 09:18:49;;;;;;;1.30;1.03;;;22.20;89.10;;;;;;4979333;28;20592;-72
2022/11/18 09:21:16;;;;;;;0.90;0.80;;;22.20;89.10;;;;;;4979477;28;20464;-72
2022/11/18 09:23:43;;;;;;;1.70;1.20;;;22.20;89.00;;;;;;4982021;28;20452;-73
2022/11/18 09:26:13;;;;;;;1.10;0.90;;;22.20;88.90;;;;;;4987273;28;20456;-73
2022/11/18 09:28:40;;;;;;;1.13;1.03;;;22.30;89.70;;;;;;4981940;28;20464;-73
2022/11/18 09:31:08;;;;;;;1.20;1.10;;;22.20;88.70;;;;;;4979501;28;20460;-72
2022/11/18 09:33:36;;;;;;;1.00;0.87;;;22.20;88.60;;;;;;4978177;28;20463;-74
2022/11/18 09:36:04;;;;;;;1.97;1.03;;;22.20;88.60;;;;;;4979894;28;20461;-72
2022/11/18 09:38:31;;;;;;;1.00;0.90;;;22.20;88.60;;;;;;4978889;28;20452;-73
2022/11/18 09:41:07;;;;;;;1.10;1.00;;;22.20;88.60;;;;;;4981718;28;20471;-73
2022/11/18 09:43:42;;;;;;;1.23;1.13;;;22.20;88.60;;;;;;4976716;28;20986;-72
2022/11/18 09:46:20;;;;;;;1.10;0.83;;;22.20;88.60;;;;;;4984249;28;20810;-72
2022/11/18 09:51:43;;;;;;;1.33;1.13;;;22.20;88.50;;;;;;4956389;28;20787;-72
2022/11/18 09:54:20;;;;;;;1.10;1.00;;;22.20;88.40;;;;;;4991124;28;20479;-72
2022/11/18 09:56:48;;;;;;;1.60;1.10;;;22.20;88.40;;;;;;4980558;28;20548;-72
2022/11/18 09:59:19;;;;;;;1.50;1.30;;;22.20;88.30;;;;;;4987786;28;21029;-73
2022/11/18 10:01:48;;;;;;;1.00;0.80;;;22.20;88.20;;;;;;4990893;28;20968;-73
2022/11/18 10:04:16;;;;;;;1.27;1.07;;;22.20;88.10;;;;;;4983371;28;20821;-72
2022/11/18 10:06:44;;;;;;;1.10;1.00;;;22.20;88.10;;;;;;4989683;28;21272;-71
2022/11/18 10:09:26;;;;;;;1.10;0.90;;;22.30;88.10;;;;;;4987439;28;20829;-71
2022/11/18 10:12:07;;;;;;;1.10;0.90;;;22.30;88.00;;;;;;4977160;28;20483;-72
2022/11/18 10:14:48;;;;;;;1.57;1.00;;;22.30;87.90;;;;;;4988137;28;20486;-72
2022/11/18 10:17:29;;;;;;;0.93;0.80;;;22.40;88.70;;;;;;4984040;28;20463;-71
2022/11/18 10:20:12;;;;;;;0.90;0.60;;;22.40;87.70;;;;;;4984800;28;20464;-73
2022/11/18 10:22:43;;;;;;;1.20;1.10;;;22.40;87.50;;;;;;4986740;28;20970;-72
2022/11/18 10:25:13;;;;;;;1.40;1.30;;;22.40;87.40;;;;;;4987558;28;20953;-72
2022/11/18 10:27:42;;;;;;;1.30;0.90;;;22.40;87.30;;;;;;4984230;28;20474;-71
2022/11/18 10:30:17;;;;;;;0.97;0.80;;;22.50;87.30;;;;;;4987898;28;20471;-73
2022/11/18 10:33:03;;;;;;;1.03;0.80;;;22.50;87.20;;;;;;5000743;28;20529;-73
2022/11/18 10:35:33;;;;;;;3.03;1.40;;;22.50;87.20;;;;;;4994367;28;20487;-74
2022/11/18 10:38:06;;;;;;;3.17;1.13;;;22.50;87.40;;;;;;4987226;28;20457;-75
2022/11/18 10:40:34;;;;;;;6.50;1.30;;;22.60;88.10;;;;;;4984764;28;20475;-75
2022/11/18 10:43:01;;;;;;;3.83;1.00;;;22.60;89.80;;;;;;4984180;28;20455;-74
2022/11/18 10:45:31;;;;;;;1.73;1.20;;;22.60;88.80;;;;;;4992221;28;20487;-74
2022/11/18 10:48:00;;;;;;;3.60;1.00;;;22.60;88.70;;;;;;4993204;28;20464;-74
2022/11/18 10:50:30;;;;;;;1.00;0.90;;;22.60;88.50;;;;;;4996217;28;21424;-73
2022/11/18 10:52:57;;;;;;;7.00;1.60;;;22.60;88.30;;;;;;4989929;28;20451;-73
2022/11/18 10:55:24;;;;;;;2.13;1.00;;;22.60;88.10;;;;;;4986600;28;20476;-73
2022/11/18 10:57:56;;;;;;;1.70;1.10;;;22.70;88.80;;;;;;5002667;28;20440;-73
2022/11/18 11:00:49;;;;;;;1.90;0.93;;;22.70;88.70;;;;;;4987831;28;20735;-72
2022/11/18 11:03:27;;;;;;;1.73;1.10;;;22.70;87.80;;;;;;4968405;28;20468;-72
2022/11/18 11:06:21;;;;;;;1.10;1.00;;;22.70;87.70;;;;;;4990409;28;20452;-72
2022/11/18 11:08:50;;;;;;;3.40;1.30;;;22.70;87.70;;;;;;5003074;28;20934;-73
2022/11/18 11:11:24;;;;;;;4.10;1.20;;;22.70;87.50;;;;;;4993581;28;20815;-73
2022/11/18 11:13:54;;;;;;;1.07;0.93;;;22.70;87.50;;;;;;4986544;28;20456;-73
2022/11/18 11:16:23;;;;;;;1.63;1.07;;;22.70;87.30;;;;;;4990234;28;21029;-73
2022/11/18 11:18:55;;;;;;;1.03;0.90;;;22.70;87.30;;;;;;4990424;28;20459;-73
2022/11/18 11:21:23;;;;;;;1.70;1.00;;;22.70;87.20;;;;;;4992766;28;20537;-73
2022/11/18 11:23:51;;;;;;;1.20;0.87;;;22.70;87.10;;;;;;4990088;28;20470;-72
2022/11/18 11:26:24;;;;;;;1.43;0.90;;;22.70;87.00;;;;;;4998278;28;20827;-73
2022/11/18 11:28:56;;;;;;;1.90;1.30;;;22.70;87.00;;;;;;4985262;28;20467;-72
2022/11/18 11:31:35;;;;;;;1.47;1.27;;;22.70;87.00;;;;;;5003110;28;20798;-73
2022/11/18 11:34:13;;;;;;;2.27;1.10;;;22.70;86.80;;;;;;4993026;28;20462;-72
2022/11/18 11:36:48;;;;;;;2.00;1.20;;;22.70;86.70;;;;;;4987984;28;20961;-74
2022/11/18 11:39:50;;;;;;;1.37;1.07;;;22.70;86.70;;;;;;4992495;28;20826;-76
2022/11/18 11:42:29;;;;;;;1.10;1.00;;;22.70;86.80;;;;;;4990528;28;20459;-76
2022/11/18 11:45:12;;;;;;;1.50;1.00;;;22.60;87.00;;;;;;4993267;28;20972;-77
2022/11/18 11:47:55;;;;;;;2.73;1.33;;;22.60;87.60;;;;;;4996572;28;20459;-76
2022/11/18 11:50:31;;;;;;;1.23;1.13;;;22.60;87.80;;;;;;4999521;28;20459;-77
2022/11/18 11:53:14;;;;;;;1.07;0.90;;;22.60;88.10;;;;;;4987745;28;20463;-77
2022/11/18 11:55:54;;;;;;;2.40;1.10;;;22.60;88.30;;;;;;4997113;28;20590;-76
2022/11/18 11:58:42;;;;;;;1.73;1.17;;;22.60;88.40;;;;;;4988217;28;20517;-77
2022/11/18 12:01:18;;;;;;;1.63;1.53;;;22.60;88.70;;;;;;5002255;28;20985;-78
2022/11/18 12:03:49;;;;;;;1.00;0.70;;;22.60;88.80;;;;;;4997900;28;20468;-78
2022/11/18 12:06:16;;;;;;;1.20;1.10;;;22.60;88.90;;;;;;5000176;28;20563;-77
2022/11/18 12:08:52;;;;;;;1.60;1.17;;;22.60;89.00;;;;;;5002967;28;20833;-77
2022/11/18 12:11:25;;;;;;;1.60;1.00;;;22.60;89.20;;;;;;4992557;28;20463;-77
2022/11/18 12:13:59;;;;;;;1.60;1.00;;;22.60;89.20;;;;;;4991942;28;20463;-78
2022/11/18 12:16:35;;;;;;;1.10;0.93;;;22.60;89.30;;;;;;4999569;28;20499;-77
2022/11/18 12:19:12;;;;;;;1.10;0.83;;;22.60;89.40;;;;;;4994841;28;20459;-78
2022/11/18 12:22:02;;;;;;;1.30;0.90;;;22.60;89.50;;;;;;5003393;28;20463;-77
2022/11/18 12:24:35;;;;;;;1.20;0.97;;;22.60;89.60;;;;;;4994464;28;20452;-77
2022/11/18 12:27:05;;;;;;;1.63;0.97;;;22.60;89.70;;;;;;4988400;28;20528;-77
2022/11/18 12:29:38;;;;;;;1.83;1.20;;;22.60;89.70;;;;;;4990470;28;20471;-77
2022/11/18 12:32:25;;;;;;;1.07;0.90;;;22.60;90.00;;;;;;4990644;28;20471;-77
2022/11/18 12:34:59;;;;;;;1.50;1.00;;;22.60;90.00;;;;;;5000436;28;20471;-76
2022/11/18 12:37:45;;;;;;;1.70;1.10;;;22.60;90.00;;;;;;4989386;28;20456;-77
2022/11/18 12:40:41;;;;;;;1.10;0.90;;;22.60;90.10;;;;;;4984633;28;20459;-77
2022/11/18 12:43:46;;;;;;;1.73;1.00;;;22.60;90.10;;;;;;4986445;28;20452;-75
2022/11/18 12:46:46;;;;;;;0.90;0.80;;;22.60;90.10;;;;;;4991009;28;20440;-77
2022/11/18 12:49:50;;;;;;;1.97;1.23;;;22.60;90.20;;;;;;4983531;28;20456;-78
2022/11/18 12:52:52;;;;;;;1.40;1.03;;;22.50;90.20;;;;;;4991861;28;20977;-77
2022/11/18 12:55:27;;;;;;;1.50;1.10;;;22.50;90.30;;;;;;4986076;28;20525;-77
2022/11/18 12:57:54;;;;;;;1.40;1.00;;;22.50;90.40;;;;;;4989620;28;20472;-78
2022/11/18 13:00:50;;;;;;;1.10;0.83;;;22.50;90.50;;;;;;4990828;28;20468;-77
2022/11/18 13:03:25;;;;;;;1.37;1.13;;;22.50;90.50;;;;;;4999919;28;20451;-77
2022/11/18 13:06:01;;;;;;;1.30;1.00;;;22.50;90.70;;;;;;5003831;28;20521;-76
2022/11/18 13:08:29;;;;;;;1.00;0.90;;;22.50;90.70;;;;;;5001567;28;20499;-77
2022/11/18 13:17:50;;;;;;;1.30;0.97;;;22.50;90.80;;;;;;4989665;28;20866;-76
2022/11/18 13:19:25;;;;;;;1.10;1.00;;;22.50;90.90;;;;;;4992942;28;21105;-76
2022/11/18 13:24:46;;;;;;;3.67;1.00;;;22.50;91.00;;;;;;5001486;28;21125;-76
2022/11/18 13:27:30;;;;;;;1.40;1.00;;;22.50;91.10;;;;;;4991283;28;20471;-76
2022/11/18 13:30:04;;;;;;;1.10;0.80;;;22.40;91.10;;;;;;4986717;28;20521;-76
2022/11/18 13:32:31;;;;;;;1.30;1.17;;;22.40;91.10;;;;;;5003260;28;20439;-76
2022/11/18 13:34:59;;;;;;;1.67;1.27;;;22.40;91.10;;;;;;4983510;28;20966;-76